Fort Rucker, Alabama
Current Conditions -  °F | °C
As of 3:53 PM on Monday 26 Jan 2015 (Local Time) from KLOR Reporting Station
Clear Clear  
Wind Chill: 51°   Ceiling: Unl
Heat Index: 51°   Visibility: 10mi
Dew Point: 33°   Wind: 10mph
Humidity: 50%   Direction: 330°NNW
Pressure: 29.95"   Gusts: 20mph
Location:  31.34°N, 85.71°W
Report Text: KLOR 262153Z AUTO 33009G17KT 10SM CLR 11/01 A2995 RMK AO2 SLP141 T01060006
Loading
Personal Weather Stations






























Interactive Weather Map New forecast layout! Learn more

10-Day Weather Forecast

Advertisements
Track Severe Weather on mobile